Time;durP1;ratioP1;P1;durP2;ratioP2;P2;SDS_P1;SDS_P2;PMS_P1;PMS_P2;Temp;Humidity;BMP_temperature;BMP_pressure;BME280_temperature;BME280_humidity;BME280_pressure;Samples;Min_cycle;Max_cycle;Signal;HPM_P1;HPM_P2
2023/07/08 00:02:28;;;;;;;4.90;4.20;;;24.70;53.20;;;;;;226008;1260;22632;-53
2023/07/08 00:07:33;;;;;;;5.50;4.60;;;24.80;52.80;;;;;;229075;1265;22554;-53
2023/07/08 00:12:36;;;;;;;4.80;4.30;;;24.90;52.60;;;;;;227650;1261;22806;-53
2023/07/08 00:17:40;;;;;;;5.00;4.50;;;25.00;52.00;;;;;;222296;1260;22528;-55
2023/07/08 00:22:49;;;;;;;5.10;4.50;;;24.90;52.10;;;;;;222467;1264;22610;-54
2023/07/08 00:27:53;;;;;;;7.30;4.50;;;24.80;52.30;;;;;;222213;1261;25399;-53
2023/07/08 00:32:59;;;;;;;5.20;4.70;;;24.70;52.50;;;;;;222626;1257;25252;-53
2023/07/08 00:38:26;;;;;;;4.90;4.30;;;24.70;52.50;;;;;;222462;1263;22516;-55
2023/07/08 00:43:31;;;;;;;4.80;4.30;;;24.70;52.60;;;;;;222509;1268;22771;-52
2023/07/08 00:48:35;;;;;;;5.50;4.90;;;24.70;52.60;;;;;;222465;1254;22633;-53
2023/07/08 00:53:39;;;;;;;5.30;4.80;;;24.60;52.80;;;;;;222589;1263;24211;-53
2023/07/08 00:59:08;;;;;;;4.80;4.40;;;24.70;52.50;;;;;;222411;1266;25697;-54
2023/07/08 01:04:42;;;;;;;6.00;4.40;;;24.60;52.50;;;;;;222484;1264;25204;-54
2023/07/08 01:09:49;;;;;;;5.10;4.60;;;24.60;52.40;;;;;;222011;1260;23731;-51
2023/07/08 01:14:54;;;;;;;4.70;4.30;;;24.60;52.30;;;;;;222605;1261;22590;-55
2023/07/08 01:20:04;;;;;;;4.70;4.30;;;24.60;51.80;;;;;;222381;1260;22550;-53
2023/07/08 01:25:09;;;;;;;4.50;4.10;;;24.50;52.70;;;;;;222457;1254;23227;-54
2023/07/08 01:30:16;;;;;;;4.50;4.20;;;24.50;52.50;;;;;;222570;1264;25239;-52
2023/07/08 01:35:21;;;;;;;4.80;4.30;;;24.50;52.60;;;;;;222486;1256;26679;-55
2023/07/08 01:40:28;;;;;;;6.30;4.20;;;24.50;52.40;;;;;;222541;1260;22554;-56
2023/07/08 01:45:35;;;;;;;4.00;3.70;;;24.50;52.60;;;;;;222476;1262;22519;-53
2023/07/08 01:50:46;;;;;;;5.00;3.20;;;24.50;52.50;;;;;;222499;1267;23114;-54
2023/07/08 01:55:50;;;;;;;4.10;3.80;;;24.50;52.00;;;;;;222598;1260;22751;-54
2023/07/08 02:00:55;;;;;;;4.10;3.80;;;24.50;52.10;;;;;;222556;1260;25396;-51
2023/07/08 02:05:59;;;;;;;4.20;3.90;;;24.50;52.20;;;;;;225259;1268;22628;-52
2023/07/08 02:11:04;;;;;;;4.10;3.70;;;24.50;52.30;;;;;;222276;1260;24222;-53
2023/07/08 02:16:08;;;;;;;4.30;3.90;;;24.60;52.00;;;;;;222912;1263;368291;-55
2023/07/08 02:21:12;;;;;;;3.80;3.50;;;24.50;52.80;;;;;;222634;1266;22596;-53
2023/07/08 02:26:17;;;;;;;4.30;4.00;;;24.50;52.00;;;;;;222420;1261;25513;-54
2023/07/08 02:31:24;;;;;;;4.20;3.90;;;24.40;52.20;;;;;;222446;1263;25265;-55
2023/07/08 02:36:29;;;;;;;4.20;3.90;;;24.40;52.30;;;;;;222464;1260;22758;-53
2023/07/08 02:41:33;;;;;;;4.40;4.00;;;24.40;52.20;;;;;;222456;1267;22528;-53
2023/07/08 02:46:37;;;;;;;4.30;4.00;;;24.40;52.30;;;;;;222404;1261;22515;-54
2023/07/08 02:51:43;;;;;;;4.40;4.00;;;24.40;52.60;;;;;;222478;1260;22504;-53
2023/07/08 02:56:47;;;;;;;4.10;3.70;;;24.40;52.20;;;;;;222408;1260;22513;-51
2023/07/08 03:01:52;;;;;;;4.00;3.70;;;24.40;53.00;;;;;;222367;1268;24022;-52
2023/07/08 03:06:56;;;;;;;6.90;4.20;;;24.30;52.90;;;;;;222739;1260;25309;-55
2023/07/08 03:12:00;;;;;;;4.30;3.90;;;24.30;52.50;;;;;;222351;1268;23925;-54
2023/07/08 03:17:06;;;;;;;4.30;4.00;;;24.30;53.10;;;;;;222514;1256;24129;-53
2023/07/08 03:22:10;;;;;;;6.30;4.20;;;24.30;52.90;;;;;;222481;1264;22613;-55
2023/07/08 03:27:16;;;;;;;5.70;4.10;;;24.30;52.80;;;;;;222608;1263;22652;-55
2023/07/08 03:32:21;;;;;;;6.20;4.70;;;24.30;53.50;;;;;;222642;1260;24577;-54
2023/07/08 03:37:26;;;;;;;5.00;4.10;;;24.20;52.80;;;;;;222651;1254;22520;-54
2023/07/08 03:42:31;;;;;;;4.90;4.40;;;24.30;52.80;;;;;;222235;1260;25386;-50
2023/07/08 03:47:36;;;;;;;4.60;4.00;;;24.30;53.00;;;;;;222489;1260;23908;-55
2023/07/08 03:52:41;;;;;;;4.70;4.30;;;24.30;52.80;;;;;;222749;1263;22745;-53
2023/07/08 03:57:46;;;;;;;9.10;4.30;;;24.30;52.70;;;;;;222508;1246;23872;-54
2023/07/08 04:02:51;;;;;;;4.70;4.40;;;24.30;53.40;;;;;;222414;1268;23694;-55
2023/07/08 04:07:57;;;;;;;4.50;4.10;;;24.30;52.90;;;;;;222784;1263;23817;-51
2023/07/08 04:13:01;;;;;;;4.80;4.40;;;24.30;52.80;;;;;;222496;1266;22522;-55
2023/07/08 04:18:06;;;;;;;5.70;4.60;;;24.30;53.40;;;;;;222419;1261;22569;-55
2023/07/08 04:23:10;;;;;;;4.40;4.10;;;24.30;52.80;;;;;;222494;1263;22510;-53
2023/07/08 04:28:15;;;;;;;5.00;4.20;;;24.30;53.60;;;;;;222317;1264;22512;-56
2023/07/08 04:33:19;;;;;;;4.50;4.10;;;24.30;52.90;;;;;;222544;1263;25388;-52
2023/07/08 04:38:26;;;;;;;4.20;3.90;;;24.30;53.20;;;;;;222205;1260;22623;-52
2023/07/08 04:43:30;;;;;;;4.90;4.10;;;24.30;53.20;;;;;;222496;1264;22507;-55
2023/07/08 04:48:34;;;;;;;8.50;4.60;;;24.30;53.60;;;;;;222356;1260;22530;-54
2023/07/08 04:53:40;;;;;;;5.20;4.70;;;24.30;53.30;;;;;;222267;1266;22512;-53
2023/07/08 04:58:44;;;;;;;4.90;4.50;;;24.30;53.50;;;;;;222508;1266;24333;-54
2023/07/08 05:03:48;;;;;;;4.70;4.30;;;24.30;53.50;;;;;;222404;1268;22501;-51
2023/07/08 05:08:52;;;;;;;5.60;5.00;;;24.30;53.50;;;;;;222426;1266;22520;-53
2023/07/08 05:13:57;;;;;;;4.90;4.50;;;24.30;53.50;;;;;;222460;1266;22549;-53
2023/07/08 05:19:01;;;;;;;5.00;4.60;;;24.30;53.90;;;;;;222453;1268;22662;-55
2023/07/08 05:24:06;;;;;;;5.00;4.50;;;24.30;53.70;;;;;;222561;1254;22515;-54
2023/07/08 05:29:10;;;;;;;5.40;4.60;;;24.30;54.30;;;;;;222344;1260;22807;-57
2023/07/08 05:34:15;;;;;;;5.20;4.60;;;24.30;54.10;;;;;;222398;1266;24231;-54
2023/07/08 05:39:19;;;;;;;5.90;4.90;;;24.30;54.20;;;;;;222665;1254;23927;-53
2023/07/08 05:44:23;;;;;;;4.80;4.40;;;24.40;54.40;;;;;;222732;1261;24193;-53
2023/07/08 05:49:29;;;;;;;4.90;4.50;;;24.40;54.40;;;;;;222320;1266;22567;-53
2023/07/08 05:54:33;;;;;;;10.00;5.10;;;24.30;54.30;;;;;;222557;1260;22507;-55
2023/07/08 05:59:42;;;;;;;5.20;4.80;;;24.30;54.80;;;;;;222569;1264;23008;-56
2023/07/08 06:04:47;;;;;;;6.90;4.80;;;24.30;54.80;;;;;;222534;1256;22527;-54
2023/07/08 06:09:51;;;;;;;5.40;4.80;;;24.40;54.50;;;;;;222227;1266;22515;-54
2023/07/08 06:14:56;;;;;;;5.00;4.60;;;24.40;55.00;;;;;;222228;1264;22512;-55
2023/07/08 06:20:01;;;;;;;6.00;5.00;;;24.50;54.60;;;;;;222193;1268;22623;-55
2023/07/08 06:25:06;;;;;;;6.10;5.40;;;24.50;55.20;;;;;;222083;1266;25576;-55
2023/07/08 06:30:10;;;;;;;4.60;4.20;;;24.50;54.90;;;;;;222177;1266;22656;-55
2023/07/08 06:35:15;;;;;;;5.60;4.80;;;24.50;55.00;;;;;;222343;1263;22518;-54
2023/07/08 06:40:19;;;;;;;5.10;4.60;;;24.60;55.10;;;;;;222581;1266;22531;-56
2023/07/08 06:45:24;;;;;;;5.30;4.80;;;24.50;55.10;;;;;;222279;1263;24177;-54
2023/07/08 06:50:28;;;;;;;5.70;4.50;;;24.50;55.20;;;;;;222255;1266;24262;-53
2023/07/08 06:55:32;;;;;;;5.50;5.00;;;24.60;55.20;;;;;;222476;1268;22758;-53
2023/07/08 07:00:36;;;;;;;5.40;4.90;;;24.60;54.70;;;;;;222170;1245;25572;-54
2023/07/08 07:05:41;;;;;;;5.40;4.50;;;24.60;54.90;;;;;;222265;1266;22693;-51
2023/07/08 07:10:51;;;;;;;5.50;5.00;;;24.50;54.90;;;;;;222416;1266;25603;-53
2023/07/08 07:15:55;;;;;;;4.80;4.30;;;24.60;54.80;;;;;;222157;1266;24329;-52
2023/07/08 07:20:59;;;;;;;5.40;4.50;;;24.60;54.50;;;;;;222496;1268;22623;-54
2023/07/08 07:26:04;;;;;;;5.40;4.50;;;24.70;54.70;;;;;;222405;1263;23702;-53
2023/07/08 07:31:10;;;;;;;6.50;4.90;;;24.80;54.40;;;;;;221979;1255;25976;-55
2023/07/08 07:36:15;;;;;;;4.80;4.40;;;24.80;54.90;;;;;;222337;1250;24237;-53
2023/07/08 07:41:19;;;;;;;5.90;4.30;;;24.80;54.20;;;;;;222303;1261;23843;-48
2023/07/08 07:46:23;;;;;;;7.30;3.70;;;24.70;53.90;;;;;;222000;1267;22625;-46
2023/07/08 07:51:27;;;;;;;3.90;3.40;;;24.80;54.50;;;;;;222472;1254;22882;-46
2023/07/08 07:56:32;;;;;;;4.10;3.40;;;24.80;54.50;;;;;;222195;1268;22505;-46
2023/07/08 08:01:37;;;;;;;5.20;4.00;;;24.90;55.00;;;;;;222248;1263;22589;-44
2023/07/08 08:06:41;;;;;;;7.70;3.80;;;24.90;54.70;;;;;;222128;1257;22586;-46
2023/07/08 08:11:46;;;;;;;8.30;3.10;;;25.00;52.50;;;;;;222272;1261;23274;-47
2023/07/08 08:16:50;;;;;;;3.90;3.40;;;25.00;52.00;;;;;;222304;1261;23883;-47
2023/07/08 08:21:54;;;;;;;3.30;2.80;;;25.10;53.30;;;;;;222436;1268;22652;-45
2023/07/08 08:26:58;;;;;;;11.00;3.20;;;25.10;51.60;;;;;;222463;1245;22523;-45
2023/07/08 08:32:03;;;;;;;2.60;2.30;;;25.20;51.30;;;;;;222144;1261;22505;-48
2023/07/08 08:37:07;;;;;;;4.20;2.60;;;25.20;49.70;;;;;;222805;1256;25116;-46
2023/07/08 08:42:39;;;;;;;3.50;2.70;;;25.30;49.10;;;;;;222226;1261;24246;-45
2023/07/08 08:48:00;;;;;;;4.60;2.10;;;25.30;48.20;;;;;;222317;1266;22477;-46
2023/07/08 08:53:09;;;;;;;6.60;2.40;;;25.40;48.30;;;;;;222545;1260;22609;-47
2023/07/08 08:58:35;;;;;;;7.60;3.00;;;25.50;48.60;;;;;;222596;1266;22505;-45
2023/07/08 09:04:08;;;;;;;13.10;3.80;;;25.60;47.90;;;;;;222379;1261;23160;-46
2023/07/08 09:09:23;;;;;;;16.00;2.70;;;25.80;48.00;;;;;;222466;1267;24301;-49
2023/07/08 09:14:30;;;;;;;6.40;2.50;;;25.80;45.90;;;;;;222331;1266;22688;-47
2023/07/08 09:20:04;;;;;;;3.40;2.20;;;25.80;44.60;;;;;;222372;1254;22546;-51
2023/07/08 09:25:32;;;;;;;8.20;2.40;;;25.90;44.60;;;;;;222512;1260;22611;-51
2023/07/08 09:30:36;;;;;;;5.10;2.80;;;25.90;44.70;;;;;;222493;1261;22495;-54
2023/07/08 09:35:45;;;;;;;9.30;2.60;;;26.00;44.20;;;;;;222418;1268;22517;-55
2023/07/08 09:40:56;;;;;;;6.60;2.90;;;26.00;44.10;;;;;;222465;1263;22556;-54
2023/07/08 09:46:01;;;;;;;3.00;2.20;;;26.10;43.40;;;;;;222363;1263;22535;-49
2023/07/08 09:51:07;;;;;;;3.10;2.50;;;26.20;43.00;;;;;;222238;1260;24428;-49
2023/07/08 09:56:21;;;;;;;2.40;2.30;;;26.10;43.50;;;;;;221214;1268;22521;-53
2023/07/08 10:01:29;;;;;;;3.20;2.60;;;26.10;44.20;;;;;;220865;1266;25317;-54
2023/07/08 10:06:35;;;;;;;3.20;2.30;;;26.20;43.60;;;;;;221188;1274;22701;-47
2023/07/08 10:11:53;;;;;;;3.00;2.30;;;26.30;42.30;;;;;;221278;1259;23900;-49
2023/07/08 10:16:57;;;;;;;4.60;2.40;;;26.30;42.00;;;;;;221112;1265;24250;-50
2023/07/08 10:22:31;;;;;;;4.30;2.60;;;26.40;42.50;;;;;;221231;1265;22524;-50
2023/07/08 10:27:47;;;;;;;2.70;2.30;;;26.40;41.50;;;;;;220927;1266;22536;-55
2023/07/08 10:33:29;;;;;;;6.80;2.80;;;26.50;41.40;;;;;;220685;1263;22531;-46
2023/07/08 10:38:49;;;;;;;2.50;2.30;;;26.50;41.50;;;;;;221971;1267;22600;-48
2023/07/08 10:44:10;;;;;;;3.10;2.40;;;26.60;41.70;;;;;;222391;1268;25910;-47
2023/07/08 10:49:33;;;;;;;;;;;26.70;41.90;;;;;;222517;1260;22488;-50
2023/07/08 10:54:59;;;;;;;7.60;2.80;;;26.70;42.30;;;;;;222761;1260;22505;-51
2023/07/08 11:00:28;;;;;;;7.30;2.80;;;26.70;43.40;;;;;;222492;1263;22518;-54
2023/07/08 11:05:52;;;;;;;5.60;2.70;;;26.70;44.10;;;;;;222686;1266;22616;-49
2023/07/08 11:11:25;;;;;;;6.40;2.40;;;26.70;43.10;;;;;;222568;1266;22519;-50
2023/07/08 11:16:36;;;;;;;4.50;3.10;;;26.70;43.80;;;;;;222466;1260;22686;-53
2023/07/08 11:21:52;;;;;;;5.50;2.30;;;26.70;44.10;;;;;;222569;1262;22504;-51
2023/07/08 11:27:11;;;;;;;2.50;2.30;;;26.50;42.50;;;;;;222332;1261;22586;-52
2023/07/08 11:32:17;;;;;;;2.70;1.80;;;26.50;43.10;;;;;;222372;1263;25204;-52
2023/07/08 11:37:22;;;;;;;2.90;2.50;;;26.60;43.30;;;;;;222361;1263;22612;-51
2023/07/08 11:42:45;;;;;;;2.60;2.40;;;27.00;40.40;;;;;;222454;1261;24185;-53
2023/07/08 11:48:10;;;;;;;2.70;2.50;;;27.10;40.60;;;;;;222440;1253;23909;-51
2023/07/08 11:53:29;;;;;;;4.00;2.50;;;27.00;41.70;;;;;;222719;1266;24272;-48
2023/07/08 11:58:49;;;;;;;2.70;2.10;;;26.90;42.80;;;;;;222809;1264;22521;-50
2023/07/08 12:04:08;;;;;;;4.10;2.40;;;26.80;43.20;;;;;;221144;1274;22658;-48
2023/07/08 12:09:35;;;;;;;5.00;2.90;;;26.80;44.30;;;;;;221259;1275;26648;-50
2023/07/08 12:14:39;;;;;;;6.00;2.80;;;26.80;44.50;;;;;;220892;1269;24202;-51
2023/07/08 12:19:46;;;;;;;2.20;2.10;;;26.80;44.20;;;;;;221490;1266;26633;-53
2023/07/08 12:24:50;;;;;;;3.20;2.30;;;26.80;43.90;;;;;;222181;1269;22512;-51
2023/07/08 12:29:55;;;;;;;2.40;2.20;;;26.80;43.70;;;;;;222428;1268;22520;-48
2023/07/08 12:34:59;;;;;;;2.30;2.00;;;26.80;44.70;;;;;;222395;1269;25297;-52
2023/07/08 12:40:10;;;;;;;3.20;2.50;;;26.80;44.90;;;;;;222190;1261;24232;-51
2023/07/08 12:45:18;;;;;;;2.40;2.20;;;26.80;44.70;;;;;;222442;1266;25294;-51
2023/07/08 12:50:22;;;;;;;2.40;2.30;;;26.80;45.10;;;;;;222266;1263;22599;-52
2023/07/08 12:55:27;;;;;;;2.50;2.30;;;26.90;45.30;;;;;;222536;1267;24180;-51
2023/07/08 13:00:36;;;;;;;2.30;2.20;;;26.80;45.10;;;;;;222613;1268;22548;-51
2023/07/08 13:05:42;;;;;;;2.70;2.30;;;26.80;45.30;;;;;;222250;1266;22617;-52
2023/07/08 13:10:47;;;;;;;2.50;2.30;;;26.80;45.80;;;;;;222752;1267;25367;-53
2023/07/08 13:15:52;;;;;;;2.80;2.60;;;26.80;46.00;;;;;;222837;1267;23450;-50
2023/07/08 13:20:58;;;;;;;2.90;2.40;;;26.80;46.10;;;;;;222424;1264;22813;-56
2023/07/08 13:26:14;;;;;;;2.60;2.40;;;26.80;46.40;;;;;;222429;1266;24260;-49
2023/07/08 13:31:23;;;;;;;2.40;2.20;;;26.90;45.80;;;;;;222376;1261;24189;-51
2023/07/08 13:36:33;;;;;;;2.90;2.70;;;27.00;45.60;;;;;;222395;1264;25438;-51
2023/07/08 13:41:45;;;;;;;2.40;2.20;;;26.90;45.90;;;;;;222550;1263;22511;-53
2023/07/08 13:46:55;;;;;;;2.30;2.20;;;27.00;45.90;;;;;;222244;1266;24461;-53
2023/07/08 13:52:09;;;;;;;2.60;2.40;;;27.00;44.40;;;;;;222758;1267;22522;-50
2023/07/08 13:57:17;;;;;;;2.80;2.30;;;27.00;44.20;;;;;;222472;1261;22524;-51
2023/07/08 14:02:29;;;;;;;2.40;2.20;;;27.00;45.90;;;;;;222604;1266;22829;-47
2023/07/08 14:07:34;;;;;;;2.90;2.30;;;27.00;45.80;;;;;;222582;1251;25492;-48
2023/07/08 14:12:38;;;;;;;2.30;2.20;;;27.00;46.00;;;;;;222510;1263;22523;-54
2023/07/08 14:17:42;;;;;;;2.90;2.60;;;27.00;46.10;;;;;;222342;1266;244468;-51
2023/07/08 14:22:47;;;;;;;2.10;2.00;;;27.00;44.80;;;;;;222354;1257;24278;-48
2023/07/08 14:27:51;;;;;;;2.10;2.00;;;27.00;44.80;;;;;;222806;1260;25274;-50
2023/07/08 14:32:58;;;;;;;2.60;2.40;;;27.00;45.90;;;;;;222236;1268;22627;-51
2023/07/08 14:38:02;;;;;;;2.90;2.30;;;27.00;46.60;;;;;;222372;1264;25220;-50
2023/07/08 14:43:21;;;;;;;2.00;1.90;;;27.00;46.30;;;;;;222436;1264;22515;-51
2023/07/08 14:48:27;;;;;;;2.30;2.20;;;27.00;46.40;;;;;;222515;1260;22523;-51
2023/07/08 14:53:32;;;;;;;2.30;2.10;;;26.90;47.20;;;;;;222754;1255;24215;-49
2023/07/08 14:58:40;;;;;;;2.30;2.10;;;27.00;47.10;;;;;;222330;1267;24206;-50
2023/07/08 15:03:45;;;;;;;2.40;2.10;;;27.00;47.20;;;;;;222653;1260;22508;-48
2023/07/08 15:08:49;;;;;;;2.60;2.40;;;27.00;47.30;;;;;;222433;1267;22972;-51
2023/07/08 15:13:53;;;;;;;2.40;2.20;;;27.00;47.20;;;;;;222662;1261;25208;-47
2023/07/08 15:18:57;;;;;;;3.00;2.10;;;27.00;46.20;;;;;;222544;1263;22520;-50
2023/07/08 15:24:02;;;;;;;2.60;2.40;;;27.10;45.30;;;;;;222556;1268;25537;-54
2023/07/08 15:29:12;;;;;;;2.80;2.60;;;27.10;45.40;;;;;;222461;1268;22514;-48
2023/07/08 15:34:20;;;;;;;2.80;2.50;;;27.00;46.00;;;;;;222832;1253;27124;-54
2023/07/08 15:39:24;;;;;;;2.60;2.40;;;27.00;46.50;;;;;;222560;1250;22537;-50
2023/07/08 15:44:28;;;;;;;2.70;2.50;;;27.00;46.30;;;;;;222586;1264;22580;-51
2023/07/08 15:49:33;;;;;;;2.20;2.10;;;27.00;46.50;;;;;;222564;1267;22509;-51
2023/07/08 15:54:38;;;;;;;2.90;2.70;;;27.00;46.80;;;;;;222735;1264;26611;-51
2023/07/08 15:59:42;;;;;;;2.40;2.20;;;27.10;45.30;;;;;;222713;1260;22511;-48
2023/07/08 16:04:46;;;;;;;2.50;2.40;;;27.10;46.30;;;;;;222536;1263;22585;-47
2023/07/08 16:09:50;;;;;;;2.90;2.70;;;27.10;44.80;;;;;;222493;1268;22619;-49
2023/07/08 16:14:55;;;;;;;3.20;2.40;;;27.10;44.80;;;;;;222327;1268;22532;-50
2023/07/08 16:19:59;;;;;;;4.50;2.60;;;27.20;44.10;;;;;;222592;1261;22503;-49
2023/07/08 16:25:04;;;;;;;3.00;2.80;;;27.10;44.70;;;;;;222717;1262;24321;-51
2023/07/08 16:30:13;;;;;;;3.20;2.60;;;27.10;44.70;;;;;;222504;1267;24237;-50
2023/07/08 16:35:20;;;;;;;3.10;2.00;;;27.10;44.70;;;;;;222524;1260;23560;-52
2023/07/08 16:40:25;;;;;;;3.40;2.30;;;27.10;44.50;;;;;;222594;1260;24269;-56
2023/07/08 16:45:29;;;;;;;2.50;2.30;;;27.10;45.10;;;;;;222697;1260;22505;-57
2023/07/08 16:50:34;;;;;;;2.60;2.40;;;27.10;45.10;;;;;;222591;1266;24317;-56
2023/07/08 16:55:39;;;;;;;2.70;2.50;;;27.00;45.80;;;;;;222594;1261;22644;-54
2023/07/08 17:00:46;;;;;;;2.90;2.60;;;27.00;46.60;;;;;;222518;1264;22996;-56
2023/07/08 17:05:51;;;;;;;2.70;2.60;;;27.00;46.80;;;;;;222310;1256;24230;-57
2023/07/08 17:10:55;;;;;;;2.60;2.40;;;26.90;46.90;;;;;;222723;1263;24121;-54
2023/07/08 17:15:59;;;;;;;2.70;2.50;;;27.00;46.30;;;;;;222529;1260;22501;-56
2023/07/08 17:21:13;;;;;;;3.00;2.80;;;27.00;45.90;;;;;;222315;1261;24265;-56
2023/07/08 17:26:18;;;;;;;2.50;2.30;;;27.10;45.50;;;;;;222361;1254;25249;-57
2023/07/08 17:31:23;;;;;;;3.50;2.50;;;27.10;45.80;;;;;;222600;1268;22986;-57
2023/07/08 17:36:48;;;;;;;5.30;2.60;;;27.20;46.50;;;;;;222766;1260;22539;-55
2023/07/08 17:41:53;;;;;;;3.00;2.60;;;27.00;46.70;;;;;;222504;1253;22511;-55
2023/07/08 17:47:00;;;;;;;3.30;3.10;;;27.00;47.40;;;;;;222567;1260;23654;-54
2023/07/08 17:52:05;;;;;;;5.10;3.10;;;27.00;47.40;;;;;;222445;1267;25559;-57
2023/07/08 17:57:09;;;;;;;3.10;2.80;;;26.90;47.50;;;;;;222623;1260;24341;-55
2023/07/08 18:02:15;;;;;;;3.90;3.60;;;27.00;47.60;;;;;;222832;1261;25603;-55
2023/07/08 18:07:25;;;;;;;6.80;3.40;;;27.00;47.50;;;;;;222694;1261;22508;-56
2023/07/08 18:12:29;;;;;;;4.00;3.40;;;27.00;45.60;;;;;;222717;1260;22723;-55
2023/07/08 18:17:33;;;;;;;5.40;3.90;;;27.00;46.80;;;;;;222768;1253;24190;-55
2023/07/08 18:22:42;;;;;;;3.50;3.30;;;26.90;47.80;;;;;;222542;1266;22904;-57
2023/07/08 18:27:47;;;;;;;4.30;3.10;;;26.80;48.60;;;;;;222681;1253;22522;-57
2023/07/08 18:32:52;;;;;;;3.70;3.40;;;26.90;48.60;;;;;;222373;1260;24405;-57
2023/07/08 18:37:56;;;;;;;3.60;3.40;;;26.80;48.30;;;;;;222471;1264;22662;-59
2023/07/08 18:43:05;;;;;;;5.30;3.60;;;26.70;48.40;;;;;;222558;1260;24643;-56
2023/07/08 18:48:14;;;;;;;4.90;4.50;;;26.70;48.70;;;;;;222474;1264;24041;-56
2023/07/08 18:53:19;;;;;;;4.50;4.10;;;26.70;49.00;;;;;;222836;1260;22503;-57
2023/07/08 18:58:23;;;;;;;5.80;4.50;;;26.70;49.60;;;;;;222391;1259;24159;-57
2023/07/08 19:03:29;;;;;;;5.00;4.20;;;26.70;49.60;;;;;;222610;1263;24964;-54
2023/07/08 19:08:34;;;;;;;5.90;5.10;;;26.70;49.90;;;;;;222445;1266;22571;-56
2023/07/08 19:13:38;;;;;;;5.70;4.20;;;26.70;49.80;;;;;;222451;1256;22516;-55
2023/07/08 19:18:43;;;;;;;4.70;3.80;;;26.70;49.80;;;;;;222611;1267;22506;-56
2023/07/08 19:23:50;;;;;;;4.90;4.10;;;26.70;49.90;;;;;;222568;1262;22513;-57
2023/07/08 19:28:55;;;;;;;4.70;4.30;;;26.60;49.30;;;;;;222321;1266;24349;-55
2023/07/08 19:34:05;;;;;;;6.40;4.90;;;26.60;49.60;;;;;;222626;1264;25128;-58
2023/07/08 19:39:10;;;;;;;6.70;4.90;;;26.60;49.90;;;;;;222318;1266;24180;-57
2023/07/08 19:44:22;;;;;;;4.80;4.30;;;26.60;50.00;;;;;;222703;1263;24768;-55
2023/07/08 19:49:26;;;;;;;4.60;3.90;;;26.60;50.10;;;;;;222519;1260;22510;-58
2023/07/08 19:54:30;;;;;;;4.60;4.00;;;26.60;50.40;;;;;;222472;1264;25449;-55
2023/07/08 19:59:34;;;;;;;4.80;4.40;;;26.60;50.20;;;;;;222366;1264;22520;-57
2023/07/08 20:04:38;;;;;;;5.40;4.20;;;26.60;50.80;;;;;;222479;1265;22520;-57
2023/07/08 20:09:43;;;;;;;4.70;4.20;;;26.50;50.60;;;;;;222551;1263;24182;-55
2023/07/08 20:14:47;;;;;;;7.20;4.60;;;26.50;50.80;;;;;;222242;1260;23197;-55
2023/07/08 20:19:52;;;;;;;5.20;4.70;;;26.50;51.00;;;;;;222653;1263;24205;-56
2023/07/08 20:24:56;;;;;;;8.50;5.40;;;26.50;51.10;;;;;;222455;1266;22549;-58
2023/07/08 20:30:01;;;;;;;5.50;5.00;;;26.50;51.20;;;;;;222668;1261;25502;-57
2023/07/08 20:35:05;;;;;;;7.30;5.80;;;26.50;51.30;;;;;;222545;1244;24219;-56
2023/07/08 20:40:26;;;;;;;6.10;5.30;;;26.50;51.40;;;;;;223027;1263;24370;-56
2023/07/08 20:45:31;;;;;;;;;;;26.50;51.50;;;;;;222758;1260;25176;-56
2023/07/08 20:50:35;;;;;;;7.10;5.80;;;26.50;51.70;;;;;;222880;1245;24246;-55
2023/07/08 20:55:44;;;;;;;6.80;6.20;;;26.50;51.50;;;;;;222745;1268;24180;-54
2023/07/08 21:00:48;;;;;;;6.10;5.60;;;26.40;51.30;;;;;;222898;1263;22721;-55
2023/07/08 21:05:55;;;;;;;10.20;6.30;;;26.40;51.50;;;;;;222865;1253;24221;-55
2023/07/08 21:10:59;;;;;;;8.00;7.10;;;26.40;51.40;;;;;;223262;1267;24047;-54
2023/07/08 21:16:15;;;;;;;10.90;7.10;;;26.40;51.50;;;;;;222605;1260;22505;-57
2023/07/08 21:21:20;;;;;;;9.00;8.10;;;26.40;51.60;;;;;;222561;1253;22515;-55
2023/07/08 21:26:30;;;;;;;9.20;8.20;;;26.40;51.60;;;;;;222441;1260;24246;-55
2023/07/08 21:31:34;;;;;;;11.20;9.90;;;26.30;51.80;;;;;;222622;1264;24376;-55
2023/07/08 21:36:41;;;;;;;19.10;15.80;;;26.30;52.30;;;;;;222409;1268;22526;-56
2023/07/08 21:41:45;;;;;;;17.50;15.10;;;26.30;52.10;;;;;;222497;1260;24178;-55
2023/07/08 21:46:49;;;;;;;18.10;15.40;;;26.30;52.10;;;;;;222554;1263;22668;-57
2023/07/08 21:51:54;;;;;;;21.10;17.10;;;26.30;52.10;;;;;;222417;1267;25252;-56
2023/07/08 21:56:58;;;;;;;22.50;16.80;;;26.30;52.20;;;;;;222394;1268;23904;-57
2023/07/08 22:02:02;;;;;;;18.20;15.20;;;26.20;52.00;;;;;;222298;1260;24330;-56
2023/07/08 22:07:13;;;;;;;20.20;16.00;;;26.30;52.10;;;;;;222476;1267;22576;-57
2023/07/08 22:12:17;;;;;;;16.40;14.60;;;26.20;52.00;;;;;;222429;1268;27723;-57
2023/07/08 22:17:21;;;;;;;16.30;14.30;;;26.20;51.90;;;;;;222402;1260;25382;-56
2023/07/08 22:22:26;;;;;;;20.80;16.50;;;26.20;52.00;;;;;;222507;1264;24342;-56
2023/07/08 22:27:31;;;;;;;17.00;15.20;;;26.20;52.00;;;;;;222506;1267;22508;-55
2023/07/08 22:32:35;;;;;;;18.80;14.70;;;26.20;52.00;;;;;;222426;1260;24224;-56
2023/07/08 22:37:39;;;;;;;17.90;14.80;;;26.10;52.00;;;;;;222459;1264;24057;-56
2023/07/08 22:42:44;;;;;;;17.40;15.60;;;26.10;52.00;;;;;;222435;1260;24330;-56
2023/07/08 22:47:48;;;;;;;17.80;15.90;;;26.10;52.10;;;;;;222359;1264;22531;-55
2023/07/08 22:52:53;;;;;;;21.90;18.40;;;26.10;52.10;;;;;;222415;1261;25581;-56
2023/07/08 22:58:01;;;;;;;20.00;17.70;;;26.10;52.80;;;;;;222467;1260;24222;-57
2023/07/08 23:03:05;;;;;;;23.30;20.10;;;26.10;52.20;;;;;;222715;1263;22523;-57
2023/07/08 23:08:14;;;;;;;21.50;18.40;;;26.10;52.30;;;;;;222387;1259;23909;-57
2023/07/08 23:13:24;;;;;;;21.60;18.60;;;26.00;52.30;;;;;;222665;1244;24117;-55
2023/07/08 23:18:28;;;;;;;19.30;17.30;;;26.00;52.30;;;;;;222544;1263;22519;-55
2023/07/08 23:23:32;;;;;;;20.70;18.50;;;26.00;52.30;;;;;;222189;1260;22528;-57
2023/07/08 23:28:36;;;;;;;19.80;17.70;;;26.00;52.30;;;;;;222521;1260;22524;-56
2023/07/08 23:33:40;;;;;;;19.00;17.10;;;26.00;52.30;;;;;;222500;1260;24286;-57
2023/07/08 23:38:44;;;;;;;19.90;17.90;;;26.00;52.30;;;;;;222631;1263;22875;-57
2023/07/08 23:43:48;;;;;;;17.90;16.00;;;26.00;52.70;;;;;;222393;1253;22514;-55
2023/07/08 23:48:54;;;;;;;17.90;16.00;;;26.00;52.30;;;;;;222755;1263;22595;-52
2023/07/08 23:53:58;;;;;;;17.40;15.40;;;25.90;52.30;;;;;;222340;1260;22609;-55
2023/07/08 23:59:02;;;;;;;16.20;14.40;;;25.90;52.20;;;;;;222389;1264;24340;-58
